sensor_id;sensor_type;location;lat;lon;timestamp;temperature;humidity
6738;DHT22;3406;49.902;8.596;2023-07-16T00:00:20;21.00;99.40
6738;DHT22;3406;49.902;8.596;2023-07-16T00:02:47;21.00;99.50
6738;DHT22;3406;49.902;8.596;2023-07-16T00:05:14;21.00;99.60
6738;DHT22;3406;49.902;8.596;2023-07-16T00:07:40;21.00;99.70
6738;DHT22;3406;49.902;8.596;2023-07-16T00:10:08;21.00;99.70
6738;DHT22;3406;49.902;8.596;2023-07-16T00:12:34;21.00;99.80
6738;DHT22;3406;49.902;8.596;2023-07-16T00:15:03;21.00;99.90
6738;DHT22;3406;49.902;8.596;2023-07-16T00:17:31;21.00;99.90
6738;DHT22;3406;49.902;8.596;2023-07-16T00:19:58;20.90;99.90
6738;DHT22;3406;49.902;8.596;2023-07-16T00:22:25;20.90;99.90
6738;DHT22;3406;49.902;8.596;2023-07-16T00:24:51;20.90;99.90
6738;DHT22;3406;49.902;8.596;2023-07-16T00:27:18;20.90;99.90
6738;DHT22;3406;49.902;8.596;2023-07-16T00:29:45;20.80;99.90
6738;DHT22;3406;49.902;8.596;2023-07-16T00:32:13;20.80;99.90
6738;DHT22;3406;49.902;8.596;2023-07-16T00:34:40;20.80;99.90
6738;DHT22;3406;49.902;8.596;2023-07-16T00:37:06;20.70;99.90
6738;DHT22;3406;49.902;8.596;2023-07-16T00:39:33;20.70;99.90
6738;DHT22;3406;49.902;8.596;2023-07-16T00:41:59;20.60;99.90
6738;DHT22;3406;49.902;8.596;2023-07-16T00:44:26;20.70;99.90
6738;DHT22;3406;49.902;8.596;2023-07-16T00:46:53;20.60;99.90
6738;DHT22;3406;49.902;8.596;2023-07-16T00:49:21;20.60;99.90
6738;DHT22;3406;49.902;8.596;2023-07-16T00:51:47;20.50;99.90
6738;DHT22;3406;49.902;8.596;2023-07-16T00:54:14;20.50;99.90
6738;DHT22;3406;49.902;8.596;2023-07-16T00:56:41;20.50;99.90
6738;DHT22;3406;49.902;8.596;2023-07-16T00:59:07;20.40;99.90
6738;DHT22;3406;49.902;8.596;2023-07-16T01:01:34;20.40;99.90
6738;DHT22;3406;49.902;8.596;2023-07-16T01:04:02;20.30;99.90
6738;DHT22;3406;49.902;8.596;2023-07-16T01:06:33;20.30;99.90
6738;DHT22;3406;49.902;8.596;2023-07-16T01:09:03;20.30;99.90
6738;DHT22;3406;49.902;8.596;2023-07-16T01:11:31;20.30;99.90
6738;DHT22;3406;49.902;8.596;2023-07-16T01:14:01;20.30;99.90
6738;DHT22;3406;49.902;8.596;2023-07-16T01:16:28;20.30;99.90
6738;DHT22;3406;49.902;8.596;2023-07-16T01:18:55;20.20;99.80
6738;DHT22;3406;49.902;8.596;2023-07-16T01:21:23;20.20;99.80
6738;DHT22;3406;49.902;8.596;2023-07-16T01:24:04;20.20;99.80
6738;DHT22;3406;49.902;8.596;2023-07-16T01:26:53;20.10;99.70
6738;DHT22;3406;49.902;8.596;2023-07-16T01:29:33;20.10;99.70
6738;DHT22;3406;49.902;8.596;2023-07-16T01:32:03;20.00;99.50
6738;DHT22;3406;49.902;8.596;2023-07-16T01:34:32;20.00;99.40
6738;DHT22;3406;49.902;8.596;2023-07-16T01:37:00;19.90;99.50
6738;DHT22;3406;49.902;8.596;2023-07-16T01:39:27;19.90;99.10
6738;DHT22;3406;49.902;8.596;2023-07-16T01:41:53;19.90;99.10
6738;DHT22;3406;49.902;8.596;2023-07-16T01:44:20;19.80;99.10
6738;DHT22;3406;49.902;8.596;2023-07-16T01:46:59;19.80;99.00
6738;DHT22;3406;49.902;8.596;2023-07-16T01:49:28;19.80;98.90
6738;DHT22;3406;49.902;8.596;2023-07-16T01:51:55;19.70;98.90
6738;DHT22;3406;49.902;8.596;2023-07-16T01:54:21;19.60;98.80
6738;DHT22;3406;49.902;8.596;2023-07-16T01:56:48;19.60;98.80
6738;DHT22;3406;49.902;8.596;2023-07-16T01:59:15;19.60;98.80
6738;DHT22;3406;49.902;8.596;2023-07-16T02:01:41;19.50;98.70
6738;DHT22;3406;49.902;8.596;2023-07-16T02:04:09;19.60;98.70
6738;DHT22;3406;49.902;8.596;2023-07-16T02:06:36;19.50;98.60
6738;DHT22;3406;49.902;8.596;2023-07-16T02:09:03;19.50;98.60
6738;DHT22;3406;49.902;8.596;2023-07-16T02:11:29;19.50;98.60
6738;DHT22;3406;49.902;8.596;2023-07-16T02:13:56;19.40;98.50
6738;DHT22;3406;49.902;8.596;2023-07-16T02:16:23;19.50;98.60
6738;DHT22;3406;49.902;8.596;2023-07-16T02:18:49;19.40;98.50
6738;DHT22;3406;49.902;8.596;2023-07-16T02:21:17;19.40;98.50
6738;DHT22;3406;49.902;8.596;2023-07-16T02:23:47;19.40;98.40
6738;DHT22;3406;49.902;8.596;2023-07-16T02:26:13;19.30;98.40
6738;DHT22;3406;49.902;8.596;2023-07-16T02:28:40;19.30;98.40
6738;DHT22;3406;49.902;8.596;2023-07-16T02:31:07;19.30;98.30
6738;DHT22;3406;49.902;8.596;2023-07-16T02:33:33;19.30;98.30
6738;DHT22;3406;49.902;8.596;2023-07-16T02:36:00;19.30;98.20
6738;DHT22;3406;49.902;8.596;2023-07-16T02:38:28;19.30;98.20
6738;DHT22;3406;49.902;8.596;2023-07-16T02:40:55;19.30;98.20
6738;DHT22;3406;49.902;8.596;2023-07-16T02:43:21;19.30;98.20
6738;DHT22;3406;49.902;8.596;2023-07-16T02:45:48;19.20;98.20
6738;DHT22;3406;49.902;8.596;2023-07-16T02:48:15;19.20;98.20
6738;DHT22;3406;49.902;8.596;2023-07-16T02:50:41;19.30;98.20
6738;DHT22;3406;49.902;8.596;2023-07-16T02:53:08;19.30;98.10
6738;DHT22;3406;49.902;8.596;2023-07-16T02:55:36;19.30;98.10
6738;DHT22;3406;49.902;8.596;2023-07-16T02:58:03;19.30;98.20
6738;DHT22;3406;49.902;8.596;2023-07-16T03:00:30;19.30;98.10
6738;DHT22;3406;49.902;8.596;2023-07-16T03:02:57;19.30;98.00
6738;DHT22;3406;49.902;8.596;2023-07-16T03:05:25;19.30;98.00
6738;DHT22;3406;49.902;8.596;2023-07-16T03:07:51;19.30;97.90
6738;DHT22;3406;49.902;8.596;2023-07-16T03:10:18;19.30;97.90
6738;DHT22;3406;49.902;8.596;2023-07-16T03:12:46;19.30;97.90
6738;DHT22;3406;49.902;8.596;2023-07-16T03:15:14;19.30;97.80
6738;DHT22;3406;49.902;8.596;2023-07-16T03:17:41;19.20;97.70
6738;DHT22;3406;49.902;8.596;2023-07-16T03:20:11;19.20;97.70
6738;DHT22;3406;49.902;8.596;2023-07-16T03:22:38;19.20;97.60
6738;DHT22;3406;49.902;8.596;2023-07-16T03:25:06;19.10;97.60
6738;DHT22;3406;49.902;8.596;2023-07-16T03:27:33;19.10;97.60
6738;DHT22;3406;49.902;8.596;2023-07-16T03:30:01;19.00;97.60
6738;DHT22;3406;49.902;8.596;2023-07-16T03:32:28;19.00;97.60
6738;DHT22;3406;49.902;8.596;2023-07-16T03:34:54;18.90;97.60
6738;DHT22;3406;49.902;8.596;2023-07-16T03:37:21;18.90;97.60
6738;DHT22;3406;49.902;8.596;2023-07-16T03:39:48;18.90;97.70
6738;DHT22;3406;49.902;8.596;2023-07-16T03:42:14;18.90;97.70
6738;DHT22;3406;49.902;8.596;2023-07-16T03:44:41;18.80;97.60
6738;DHT22;3406;49.902;8.596;2023-07-16T03:47:09;18.80;97.70
6738;DHT22;3406;49.902;8.596;2023-07-16T03:49:36;18.70;97.60
6738;DHT22;3406;49.902;8.596;2023-07-16T03:52:03;18.70;97.60
6738;DHT22;3406;49.902;8.596;2023-07-16T03:54:30;18.70;97.60
6738;DHT22;3406;49.902;8.596;2023-07-16T03:56:56;18.70;97.60
6738;DHT22;3406;49.902;8.596;2023-07-16T03:59:23;18.70;97.50
6738;DHT22;3406;49.902;8.596;2023-07-16T04:01:50;18.60;97.40
6738;DHT22;3406;49.902;8.596;2023-07-16T04:04:18;18.60;97.30
6738;DHT22;3406;49.902;8.596;2023-07-16T04:06:44;18.60;97.30
6738;DHT22;3406;49.902;8.596;2023-07-16T04:09:11;18.60;97.30
6738;DHT22;3406;49.902;8.596;2023-07-16T04:11:38;18.60;97.30
6738;DHT22;3406;49.902;8.596;2023-07-16T04:14:05;18.60;97.20
6738;DHT22;3406;49.902;8.596;2023-07-16T04:16:31;18.50;97.10
6738;DHT22;3406;49.902;8.596;2023-07-16T04:18:58;18.60;97.10
6738;DHT22;3406;49.902;8.596;2023-07-16T04:21:26;18.50;96.90
6738;DHT22;3406;49.902;8.596;2023-07-16T04:23:53;18.50;96.80
6738;DHT22;3406;49.902;8.596;2023-07-16T04:26:19;18.50;96.80
6738;DHT22;3406;49.902;8.596;2023-07-16T04:28:46;18.50;96.70
6738;DHT22;3406;49.902;8.596;2023-07-16T04:31:13;18.50;96.70
6738;DHT22;3406;49.902;8.596;2023-07-16T04:33:39;18.50;96.60
6738;DHT22;3406;49.902;8.596;2023-07-16T04:36:06;18.50;96.60
6738;DHT22;3406;49.902;8.596;2023-07-16T04:38:37;18.50;96.50
6738;DHT22;3406;49.902;8.596;2023-07-16T04:41:04;18.50;96.40
6738;DHT22;3406;49.902;8.596;2023-07-16T04:43:30;18.50;96.40
6738;DHT22;3406;49.902;8.596;2023-07-16T04:46:00;18.50;96.30
6738;DHT22;3406;49.902;8.596;2023-07-16T04:48:27;18.50;96.30
6738;DHT22;3406;49.902;8.596;2023-07-16T04:50:53;18.50;96.30
6738;DHT22;3406;49.902;8.596;2023-07-16T04:53:21;18.50;96.10
6738;DHT22;3406;49.902;8.596;2023-07-16T04:55:49;18.60;96.10
6738;DHT22;3406;49.902;8.596;2023-07-16T04:58:16;18.60;96.30
6738;DHT22;3406;49.902;8.596;2023-07-16T05:00:42;18.60;95.90
6738;DHT22;3406;49.902;8.596;2023-07-16T05:03:09;18.60;95.80
6738;DHT22;3406;49.902;8.596;2023-07-16T05:05:36;18.70;95.80
6738;DHT22;3406;49.902;8.596;2023-07-16T05:08:03;18.70;95.80
6738;DHT22;3406;49.902;8.596;2023-07-16T05:10:29;18.70;95.70
6738;DHT22;3406;49.902;8.596;2023-07-16T05:12:57;18.70;95.60
6738;DHT22;3406;49.902;8.596;2023-07-16T05:15:24;18.70;95.50
6738;DHT22;3406;49.902;8.596;2023-07-16T05:17:51;18.80;95.60
6738;DHT22;3406;49.902;8.596;2023-07-16T05:20:18;18.80;95.40
6738;DHT22;3406;49.902;8.596;2023-07-16T05:22:44;18.90;95.40
6738;DHT22;3406;49.902;8.596;2023-07-16T05:25:11;19.00;95.50
6738;DHT22;3406;49.902;8.596;2023-07-16T05:27:38;19.10;95.30
6738;DHT22;3406;49.902;8.596;2023-07-16T05:30:07;19.10;95.20
6738;DHT22;3406;49.902;8.596;2023-07-16T05:32:34;19.20;95.10
6738;DHT22;3406;49.902;8.596;2023-07-16T05:35:01;19.30;95.10
6738;DHT22;3406;49.902;8.596;2023-07-16T05:37:28;19.40;94.90
6738;DHT22;3406;49.902;8.596;2023-07-16T05:39:54;19.50;94.70
6738;DHT22;3406;49.902;8.596;2023-07-16T05:42:21;19.50;94.40
6738;DHT22;3406;49.902;8.596;2023-07-16T05:44:48;19.60;94.20
6738;DHT22;3406;49.902;8.596;2023-07-16T05:47:16;19.70;94.10
6738;DHT22;3406;49.902;8.596;2023-07-16T05:49:43;19.80;93.60
6738;DHT22;3406;49.902;8.596;2023-07-16T05:52:10;19.90;93.40
6738;DHT22;3406;49.902;8.596;2023-07-16T05:54:36;20.00;93.20
6738;DHT22;3406;49.902;8.596;2023-07-16T05:57:03;20.00;92.90
6738;DHT22;3406;49.902;8.596;2023-07-16T05:59:30;20.10;92.70
6738;DHT22;3406;49.902;8.596;2023-07-16T06:01:59;20.20;92.30
6738;DHT22;3406;49.902;8.596;2023-07-16T06:04:27;20.30;91.50
6738;DHT22;3406;49.902;8.596;2023-07-16T06:06:54;20.20;91.10
6738;DHT22;3406;49.902;8.596;2023-07-16T06:09:21;20.20;90.60
6738;DHT22;3406;49.902;8.596;2023-07-16T06:11:48;20.20;90.40
6738;DHT22;3406;49.902;8.596;2023-07-16T06:14:15;20.30;90.10
6738;DHT22;3406;49.902;8.596;2023-07-16T06:16:42;20.40;89.70
6738;DHT22;3406;49.902;8.596;2023-07-16T06:19:08;20.50;88.60
6738;DHT22;3406;49.902;8.596;2023-07-16T06:21:36;20.50;87.70
6738;DHT22;3406;49.902;8.596;2023-07-16T06:24:03;20.50;86.80
6738;DHT22;3406;49.902;8.596;2023-07-16T06:26:30;20.60;86.30
6738;DHT22;3406;49.902;8.596;2023-07-16T06:28:56;20.60;85.60
6738;DHT22;3406;49.902;8.596;2023-07-16T06:31:23;20.70;84.90
6738;DHT22;3406;49.902;8.596;2023-07-16T06:33:50;20.70;84.10
6738;DHT22;3406;49.902;8.596;2023-07-16T06:36:17;20.70;83.30
6738;DHT22;3406;49.902;8.596;2023-07-16T06:38:46;20.80;82.60
6738;DHT22;3406;49.902;8.596;2023-07-16T06:41:14;20.80;82.10
6738;DHT22;3406;49.902;8.596;2023-07-16T06:43:41;20.90;81.80
6738;DHT22;3406;49.902;8.596;2023-07-16T06:46:07;21.00;81.10
6738;DHT22;3406;49.902;8.596;2023-07-16T06:48:34;21.10;80.60
6738;DHT22;3406;49.902;8.596;2023-07-16T06:51:01;21.10;79.90
6738;DHT22;3406;49.902;8.596;2023-07-16T06:53:27;21.20;79.50
6738;DHT22;3406;49.902;8.596;2023-07-16T06:55:55;21.20;78.70
6738;DHT22;3406;49.902;8.596;2023-07-16T06:58:31;21.30;78.00
6738;DHT22;3406;49.902;8.596;2023-07-16T07:00:58;21.30;77.60
6738;DHT22;3406;49.902;8.596;2023-07-16T07:03:24;21.40;77.10
6738;DHT22;3406;49.902;8.596;2023-07-16T07:05:51;21.40;76.00
6738;DHT22;3406;49.902;8.596;2023-07-16T07:08:18;21.40;75.50
6738;DHT22;3406;49.902;8.596;2023-07-16T07:10:44;21.50;75.40
6738;DHT22;3406;49.902;8.596;2023-07-16T07:13:14;21.50;75.20
6738;DHT22;3406;49.902;8.596;2023-07-16T07:15:41;21.60;75.00
6738;DHT22;3406;49.902;8.596;2023-07-16T07:18:08;21.50;74.00
6738;DHT22;3406;49.902;8.596;2023-07-16T07:20:35;21.50;73.50
6738;DHT22;3406;49.902;8.596;2023-07-16T07:23:01;21.50;73.00
6738;DHT22;3406;49.902;8.596;2023-07-16T07:25:28;21.40;72.10
6738;DHT22;3406;49.902;8.596;2023-07-16T07:27:55;21.30;71.80
6738;DHT22;3406;49.902;8.596;2023-07-16T07:30:23;21.30;72.10
6738;DHT22;3406;49.902;8.596;2023-07-16T07:32:50;21.50;72.00
6738;DHT22;3406;49.902;8.596;2023-07-16T07:35:16;21.50;71.50
6738;DHT22;3406;49.902;8.596;2023-07-16T07:37:43;21.40;71.10
6738;DHT22;3406;49.902;8.596;2023-07-16T07:40:10;21.40;71.60
6738;DHT22;3406;49.902;8.596;2023-07-16T07:42:37;21.40;71.10
6738;DHT22;3406;49.902;8.596;2023-07-16T07:45:05;21.30;70.70
6738;DHT22;3406;49.902;8.596;2023-07-16T07:47:33;21.30;70.80
6738;DHT22;3406;49.902;8.596;2023-07-16T07:50:00;21.30;70.30
6738;DHT22;3406;49.902;8.596;2023-07-16T07:52:27;21.30;70.20
6738;DHT22;3406;49.902;8.596;2023-07-16T07:54:53;21.40;70.10
6738;DHT22;3406;49.902;8.596;2023-07-16T07:57:20;21.50;69.20
6738;DHT22;3406;49.902;8.596;2023-07-16T07:59:47;21.60;68.30
6738;DHT22;3406;49.902;8.596;2023-07-16T08:02:13;21.70;67.60
6738;DHT22;3406;49.902;8.596;2023-07-16T08:04:41;21.80;65.70
6738;DHT22;3406;49.902;8.596;2023-07-16T08:07:08;21.70;65.10
6738;DHT22;3406;49.902;8.596;2023-07-16T08:12:03;21.40;65.30
6738;DHT22;3406;49.902;8.596;2023-07-16T08:14:30;21.30;65.60
6738;DHT22;3406;49.902;8.596;2023-07-16T08:16:56;21.30;65.60
6738;DHT22;3406;49.902;8.596;2023-07-16T08:19:23;21.30;65.50
6738;DHT22;3406;49.902;8.596;2023-07-16T08:21:51;21.40;65.30
6738;DHT22;3406;49.902;8.596;2023-07-16T08:24:18;21.40;64.80
6738;DHT22;3406;49.902;8.596;2023-07-16T08:26:44;21.50;64.30
6738;DHT22;3406;49.902;8.596;2023-07-16T08:29:11;21.60;64.00
6738;DHT22;3406;49.902;8.596;2023-07-16T08:31:38;21.80;63.40
6738;DHT22;3406;49.902;8.596;2023-07-16T08:34:05;22.10;62.40
6738;DHT22;3406;49.902;8.596;2023-07-16T08:36:33;22.10;61.60
6738;DHT22;3406;49.902;8.596;2023-07-16T08:39:01;22.30;61.60
6738;DHT22;3406;49.902;8.596;2023-07-16T08:41:28;22.50;60.90
6738;DHT22;3406;49.902;8.596;2023-07-16T08:43:55;22.70;60.00
6738;DHT22;3406;49.902;8.596;2023-07-16T08:46:23;22.80;59.00
6738;DHT22;3406;49.902;8.596;2023-07-16T08:48:50;22.90;58.60
6738;DHT22;3406;49.902;8.596;2023-07-16T08:51:20;23.00;58.20
6738;DHT22;3406;49.902;8.596;2023-07-16T08:53:47;23.10;58.10
6738;DHT22;3406;49.902;8.596;2023-07-16T08:56:15;23.10;57.80
6738;DHT22;3406;49.902;8.596;2023-07-16T08:58:43;23.10;57.90
6738;DHT22;3406;49.902;8.596;2023-07-16T09:01:10;23.30;57.50
6738;DHT22;3406;49.902;8.596;2023-07-16T09:03:38;23.40;56.20
6738;DHT22;3406;49.902;8.596;2023-07-16T09:06:04;23.40;55.30
6738;DHT22;3406;49.902;8.596;2023-07-16T09:08:31;23.60;55.30
6738;DHT22;3406;49.902;8.596;2023-07-16T09:10:58;23.70;54.30
6738;DHT22;3406;49.902;8.596;2023-07-16T09:13:26;23.70;53.80
6738;DHT22;3406;49.902;8.596;2023-07-16T09:15:54;23.80;53.70
6738;DHT22;3406;49.902;8.596;2023-07-16T09:18:21;23.80;53.50
6738;DHT22;3406;49.902;8.596;2023-07-16T09:20:48;23.90;53.30
6738;DHT22;3406;49.902;8.596;2023-07-16T09:23:17;23.80;52.90
6738;DHT22;3406;49.902;8.596;2023-07-16T09:25:44;23.90;52.60
6738;DHT22;3406;49.902;8.596;2023-07-16T09:28:11;23.90;52.30
6738;DHT22;3406;49.902;8.596;2023-07-16T09:30:39;23.80;52.20
6738;DHT22;3406;49.902;8.596;2023-07-16T09:33:10;23.90;52.00
6738;DHT22;3406;49.902;8.596;2023-07-16T09:35:38;23.90;52.20
6738;DHT22;3406;49.902;8.596;2023-07-16T09:38:06;24.00;51.90
6738;DHT22;3406;49.902;8.596;2023-07-16T09:40:33;24.10;52.20
6738;DHT22;3406;49.902;8.596;2023-07-16T09:43:00;24.20;52.00
6738;DHT22;3406;49.902;8.596;2023-07-16T09:45:28;24.30;51.60
6738;DHT22;3406;49.902;8.596;2023-07-16T09:47:56;24.30;51.40
6738;DHT22;3406;49.902;8.596;2023-07-16T09:50:23;24.20;51.50
6738;DHT22;3406;49.902;8.596;2023-07-16T09:52:51;24.30;51.90
6738;DHT22;3406;49.902;8.596;2023-07-16T09:55:18;24.50;51.40
6738;DHT22;3406;49.902;8.596;2023-07-16T09:57:49;24.60;50.00
6738;DHT22;3406;49.902;8.596;2023-07-16T10:00:17;24.60;49.00
6738;DHT22;3406;49.902;8.596;2023-07-16T10:02:46;24.50;49.40
6738;DHT22;3406;49.902;8.596;2023-07-16T10:05:16;24.40;49.00
6738;DHT22;3406;49.902;8.596;2023-07-16T10:07:48;24.50;49.00
6738;DHT22;3406;49.902;8.596;2023-07-16T10:10:15;24.50;49.00
6738;DHT22;3406;49.902;8.596;2023-07-16T10:12:43;24.60;48.80
6738;DHT22;3406;49.902;8.596;2023-07-16T10:15:11;24.60;48.70
6738;DHT22;3406;49.902;8.596;2023-07-16T10:17:38;24.60;47.80
6738;DHT22;3406;49.902;8.596;2023-07-16T10:20:28;24.50;47.90
6738;DHT22;3406;49.902;8.596;2023-07-16T10:22:55;24.60;48.20
6738;DHT22;3406;49.902;8.596;2023-07-16T10:25:23;24.70;48.10
6738;DHT22;3406;49.902;8.596;2023-07-16T10:27:53;24.80;47.80
6738;DHT22;3406;49.902;8.596;2023-07-16T10:30:20;24.80;47.60
6738;DHT22;3406;49.902;8.596;2023-07-16T10:32:47;24.90;46.80
6738;DHT22;3406;49.902;8.596;2023-07-16T10:35:14;25.00;46.60
6738;DHT22;3406;49.902;8.596;2023-07-16T10:37:42;25.00;46.40
6738;DHT22;3406;49.902;8.596;2023-07-16T10:40:10;25.10;46.30
6738;DHT22;3406;49.902;8.596;2023-07-16T10:42:39;25.20;46.00
6738;DHT22;3406;49.902;8.596;2023-07-16T10:45:07;25.20;45.80
6738;DHT22;3406;49.902;8.596;2023-07-16T10:47:36;25.20;45.30
6738;DHT22;3406;49.902;8.596;2023-07-16T10:50:05;25.30;45.60
6738;DHT22;3406;49.902;8.596;2023-07-16T10:52:32;25.30;45.50
6738;DHT22;3406;49.902;8.596;2023-07-16T10:55:00;25.40;45.20
6738;DHT22;3406;49.902;8.596;2023-07-16T10:57:27;25.30;45.10
6738;DHT22;3406;49.902;8.596;2023-07-16T10:59:56;25.30;44.70
6738;DHT22;3406;49.902;8.596;2023-07-16T11:02:24;25.30;44.80
6738;DHT22;3406;49.902;8.596;2023-07-16T11:04:52;25.30;44.00
6738;DHT22;3406;49.902;8.596;2023-07-16T11:07:20;25.30;43.50
6738;DHT22;3406;49.902;8.596;2023-07-16T11:09:48;25.30;43.40
6738;DHT22;3406;49.902;8.596;2023-07-16T11:12:17;25.30;43.70
6738;DHT22;3406;49.902;8.596;2023-07-16T11:14:46;25.40;44.10
6738;DHT22;3406;49.902;8.596;2023-07-16T11:17:13;25.40;43.90
6738;DHT22;3406;49.902;8.596;2023-07-16T11:19:41;25.40;43.80
6738;DHT22;3406;49.902;8.596;2023-07-16T11:22:09;25.50;44.00
6738;DHT22;3406;49.902;8.596;2023-07-16T11:24:38;25.60;43.90
6738;DHT22;3406;49.902;8.596;2023-07-16T11:27:05;25.70;43.70
6738;DHT22;3406;49.902;8.596;2023-07-16T11:29:37;25.70;43.70
6738;DHT22;3406;49.902;8.596;2023-07-16T11:32:04;25.80;44.00
6738;DHT22;3406;49.902;8.596;2023-07-16T11:34:31;25.90;43.60
6738;DHT22;3406;49.902;8.596;2023-07-16T11:37:07;26.00;43.40
6738;DHT22;3406;49.902;8.596;2023-07-16T11:39:35;26.00;42.90
6738;DHT22;3406;49.902;8.596;2023-07-16T11:42:02;26.10;43.00
6738;DHT22;3406;49.902;8.596;2023-07-16T11:44:33;26.20;43.00
6738;DHT22;3406;49.902;8.596;2023-07-16T11:47:01;26.20;43.00
6738;DHT22;3406;49.902;8.596;2023-07-16T11:49:28;26.20;43.10
6738;DHT22;3406;49.902;8.596;2023-07-16T11:51:56;26.20;43.10
6738;DHT22;3406;49.902;8.596;2023-07-16T11:54:22;26.30;43.00
6738;DHT22;3406;49.902;8.596;2023-07-16T11:56:49;26.30;43.00
6738;DHT22;3406;49.902;8.596;2023-07-16T11:59:16;26.50;42.80
6738;DHT22;3406;49.902;8.596;2023-07-16T12:01:46;26.60;42.40
6738;DHT22;3406;49.902;8.596;2023-07-16T12:04:14;26.60;41.60
6738;DHT22;3406;49.902;8.596;2023-07-16T12:06:41;26.60;41.50
6738;DHT22;3406;49.902;8.596;2023-07-16T12:09:07;26.60;41.50
6738;DHT22;3406;49.902;8.596;2023-07-16T12:11:34;26.40;41.10
6738;DHT22;3406;49.902;8.596;2023-07-16T12:14:05;26.30;41.30
6738;DHT22;3406;49.902;8.596;2023-07-16T12:16:32;26.30;41.90
6738;DHT22;3406;49.902;8.596;2023-07-16T12:18:59;26.30;41.90
6738;DHT22;3406;49.902;8.596;2023-07-16T12:21:27;26.20;42.20
6738;DHT22;3406;49.902;8.596;2023-07-16T12:23:55;26.20;42.30
6738;DHT22;3406;49.902;8.596;2023-07-16T12:26:21;26.30;41.70
6738;DHT22;3406;49.902;8.596;2023-07-16T12:28:48;26.50;41.20
6738;DHT22;3406;49.902;8.596;2023-07-16T12:31:15;26.60;40.80
6738;DHT22;3406;49.902;8.596;2023-07-16T12:33:42;26.70;40.70
6738;DHT22;3406;49.902;8.596;2023-07-16T12:36:08;26.70;40.50
6738;DHT22;3406;49.902;8.596;2023-07-16T12:38:36;26.50;40.60
6738;DHT22;3406;49.902;8.596;2023-07-16T12:41:03;26.50;40.90
6738;DHT22;3406;49.902;8.596;2023-07-16T12:43:30;26.60;40.80
6738;DHT22;3406;49.902;8.596;2023-07-16T12:45:59;26.50;40.90
6738;DHT22;3406;49.902;8.596;2023-07-16T12:48:26;26.40;41.20
6738;DHT22;3406;49.902;8.596;2023-07-16T12:50:52;26.40;41.50
6738;DHT22;3406;49.902;8.596;2023-07-16T12:53:19;26.30;41.60
6738;DHT22;3406;49.902;8.596;2023-07-16T12:55:47;26.20;41.90
6738;DHT22;3406;49.902;8.596;2023-07-16T12:58:14;26.30;42.00
6738;DHT22;3406;49.902;8.596;2023-07-16T13:00:40;26.20;41.60
6738;DHT22;3406;49.902;8.596;2023-07-16T13:03:07;26.20;41.60
6738;DHT22;3406;49.902;8.596;2023-07-16T13:05:36;26.30;41.30
6738;DHT22;3406;49.902;8.596;2023-07-16T13:08:03;26.40;40.90
6738;DHT22;3406;49.902;8.596;2023-07-16T13:10:30;26.60;41.00
6738;DHT22;3406;49.902;8.596;2023-07-16T13:12:58;26.70;40.70
6738;DHT22;3406;49.902;8.596;2023-07-16T13:15:25;26.70;40.70
6738;DHT22;3406;49.902;8.596;2023-07-16T13:17:51;26.60;40.60
6738;DHT22;3406;49.902;8.596;2023-07-16T13:20:18;26.60;40.70
6738;DHT22;3406;49.902;8.596;2023-07-16T13:22:45;26.70;40.60
6738;DHT22;3406;49.902;8.596;2023-07-16T13:25:12;26.80;40.40
6738;DHT22;3406;49.902;8.596;2023-07-16T13:27:38;27.10;40.30
6738;DHT22;3406;49.902;8.596;2023-07-16T13:30:07;27.00;40.00
6738;DHT22;3406;49.902;8.596;2023-07-16T13:32:34;27.00;39.60
6738;DHT22;3406;49.902;8.596;2023-07-16T13:35:01;27.00;39.50
6738;DHT22;3406;49.902;8.596;2023-07-16T13:37:28;27.20;39.60
6738;DHT22;3406;49.902;8.596;2023-07-16T13:39:54;27.40;39.40
6738;DHT22;3406;49.902;8.596;2023-07-16T13:42:21;27.50;39.00
6738;DHT22;3406;49.902;8.596;2023-07-16T13:44:48;27.40;38.60
6738;DHT22;3406;49.902;8.596;2023-07-16T13:47:16;27.30;38.60
6738;DHT22;3406;49.902;8.596;2023-07-16T13:49:42;27.20;38.70
6738;DHT22;3406;49.902;8.596;2023-07-16T13:52:09;27.30;38.90
6738;DHT22;3406;49.902;8.596;2023-07-16T13:54:36;27.40;38.90
6738;DHT22;3406;49.902;8.596;2023-07-16T13:57:03;27.60;38.90
6738;DHT22;3406;49.902;8.596;2023-07-16T13:59:30;27.90;38.70
6738;DHT22;3406;49.902;8.596;2023-07-16T14:02:00;28.00;38.10
6738;DHT22;3406;49.902;8.596;2023-07-16T14:04:29;28.00;37.90
6738;DHT22;3406;49.902;8.596;2023-07-16T14:06:55;28.00;37.90
6738;DHT22;3406;49.902;8.596;2023-07-16T14:09:22;27.90;37.80
6738;DHT22;3406;49.902;8.596;2023-07-16T14:11:49;27.80;37.70
6738;DHT22;3406;49.902;8.596;2023-07-16T14:14:16;27.60;37.70
6738;DHT22;3406;49.902;8.596;2023-07-16T14:16:43;27.50;37.90
6738;DHT22;3406;49.902;8.596;2023-07-16T14:19:10;27.50;38.10
6738;DHT22;3406;49.902;8.596;2023-07-16T14:21:39;27.40;37.70
6738;DHT22;3406;49.902;8.596;2023-07-16T14:24:05;27.30;38.30
6738;DHT22;3406;49.902;8.596;2023-07-16T14:26:32;27.40;38.40
6738;DHT22;3406;49.902;8.596;2023-07-16T14:29:00;27.50;38.30
6738;DHT22;3406;49.902;8.596;2023-07-16T14:31:26;27.70;37.80
6738;DHT22;3406;49.902;8.596;2023-07-16T14:33:53;27.70;37.80
6738;DHT22;3406;49.902;8.596;2023-07-16T14:36:20;27.80;38.00
6738;DHT22;3406;49.902;8.596;2023-07-16T14:38:48;27.90;37.70
6738;DHT22;3406;49.902;8.596;2023-07-16T14:41:15;28.00;37.50
6738;DHT22;3406;49.902;8.596;2023-07-16T14:43:41;27.90;37.40
6738;DHT22;3406;49.902;8.596;2023-07-16T14:46:10;27.80;37.20
6738;DHT22;3406;49.902;8.596;2023-07-16T14:48:40;27.70;37.50
6738;DHT22;3406;49.902;8.596;2023-07-16T14:51:07;27.60;37.60
6738;DHT22;3406;49.902;8.596;2023-07-16T14:53:34;27.60;37.70
6738;DHT22;3406;49.902;8.596;2023-07-16T14:56:02;27.60;37.70
6738;DHT22;3406;49.902;8.596;2023-07-16T14:58:29;27.70;37.80
6738;DHT22;3406;49.902;8.596;2023-07-16T15:00:59;27.70;37.70
6738;DHT22;3406;49.902;8.596;2023-07-16T15:03:25;27.70;37.80
6738;DHT22;3406;49.902;8.596;2023-07-16T15:05:55;27.80;38.00
6738;DHT22;3406;49.902;8.596;2023-07-16T15:08:22;28.00;38.00
6738;DHT22;3406;49.902;8.596;2023-07-16T15:10:49;28.10;37.70
6738;DHT22;3406;49.902;8.596;2023-07-16T15:13:17;28.10;37.70
6738;DHT22;3406;49.902;8.596;2023-07-16T15:15:47;28.10;37.80
6738;DHT22;3406;49.902;8.596;2023-07-16T15:18:14;28.20;37.90
6738;DHT22;3406;49.902;8.596;2023-07-16T15:20:40;28.40;37.80
6738;DHT22;3406;49.902;8.596;2023-07-16T15:23:07;28.50;37.60
6738;DHT22;3406;49.902;8.596;2023-07-16T15:25:35;28.50;37.10
6738;DHT22;3406;49.902;8.596;2023-07-16T15:28:01;28.30;36.90
6738;DHT22;3406;49.902;8.596;2023-07-16T15:30:29;28.20;36.80
6738;DHT22;3406;49.902;8.596;2023-07-16T15:32:56;28.00;37.00
6738;DHT22;3406;49.902;8.596;2023-07-16T15:35:23;27.90;37.00
6738;DHT22;3406;49.902;8.596;2023-07-16T15:37:49;27.90;37.20
6738;DHT22;3406;49.902;8.596;2023-07-16T15:40:16;27.90;37.20
6738;DHT22;3406;49.902;8.596;2023-07-16T15:42:43;28.00;37.40
6738;DHT22;3406;49.902;8.596;2023-07-16T15:45:11;28.10;37.30
6738;DHT22;3406;49.902;8.596;2023-07-16T15:47:42;28.20;37.20
6738;DHT22;3406;49.902;8.596;2023-07-16T15:50:09;28.30;37.30
6738;DHT22;3406;49.902;8.596;2023-07-16T15:52:36;28.30;37.00
6738;DHT22;3406;49.902;8.596;2023-07-16T15:55:03;28.10;37.10
6738;DHT22;3406;49.902;8.596;2023-07-16T15:57:30;28.10;37.40
6738;DHT22;3406;49.902;8.596;2023-07-16T15:59:57;28.20;37.20
6738;DHT22;3406;49.902;8.596;2023-07-16T16:02:24;28.20;36.70
6738;DHT22;3406;49.902;8.596;2023-07-16T16:04:52;27.80;37.00